Time;durP1;ratioP1;P1;durP2;ratioP2;P2;SDS_P1;SDS_P2;PMS_P1;PMS_P2;Temp;Humidity;BMP_temperature;BMP_pressure;BME280_temperature;BME280_humidity;BME280_pressure;Samples;Min_cycle;Max_cycle;Signal;HPM_P1;HPM_P2
2021/05/08 00:00:23;;;;;;;2.33;1.30;;;;;;;11.12;68.55;93022.38;5047696;28;20120;-49
2021/05/08 00:02:49;;;;;;;2.42;1.40;;;;;;;11.20;69.01;93016.78;5047672;28;20778;-49
2021/05/08 00:05:14;;;;;;;4.85;1.85;;;;;;;11.12;68.92;93003.03;5047760;28;20029;-51
2021/05/08 00:07:40;;;;;;;1.55;1.35;;;;;;;11.10;68.94;92999.34;5047619;28;20033;-50
2021/05/08 00:10:08;;;;;;;2.08;1.83;;;;;;;11.18;69.10;93011.06;5049233;28;20036;-53
2021/05/08 00:12:34;;;;;;;1.85;1.17;;;;;;;11.09;69.89;93009.66;5068391;28;20049;-49
2021/05/08 00:14:59;;;;;;;4.65;1.48;;;;;;;11.11;69.00;93009.13;5076580;28;20024;-49
2021/05/08 00:17:25;;;;;;;1.05;0.98;;;;;;;11.04;69.12;93004.38;5077693;28;20075;-48
2021/05/08 00:19:50;;;;;;;1.08;1.08;;;;;;;11.05;69.21;92995.50;5069264;28;20024;-49
2021/05/08 00:22:15;;;;;;;1.30;1.20;;;;;;;11.11;69.75;92989.78;5069190;28;20500;-49
2021/05/08 00:24:41;;;;;;;0.93;0.90;;;;;;;11.21;68.79;92990.63;5068323;28;20489;-49
2021/05/08 00:27:06;;;;;;;0.70;0.70;;;;;;;11.32;68.37;92990.91;5069585;28;20036;-49
2021/05/08 00:29:32;;;;;;;0.80;0.80;;;;;;;11.45;67.85;92987.13;5069670;28;20019;-50
2021/05/08 00:31:57;;;;;;;1.25;0.88;;;;;;;11.63;67.60;92980.31;5068475;28;20115;-49
2021/05/08 00:34:22;;;;;;;1.38;0.70;;;;;;;11.83;67.02;92981.25;5069816;28;20055;-48
2021/05/08 00:36:48;;;;;;;0.60;0.60;;;;;;;11.87;66.50;92982.31;5072080;28;20032;-47
2021/05/08 00:39:13;;;;;;;0.50;0.50;;;;;;;12.01;66.41;92975.19;5088862;28;20016;-48
2021/05/08 00:41:39;;;;;;;0.50;0.40;;;;;;;12.12;65.79;92979.50;5069445;28;20016;-47
2021/05/08 00:44:04;;;;;;;1.13;0.85;;;;;;;11.85;66.23;92987.69;5069657;28;20021;-48
2021/05/08 00:46:30;;;;;;;1.70;0.80;;;;;;;11.57;67.70;92998.44;5056707;28;20150;-48
2021/05/08 00:48:57;;;;;;;3.92;1.13;;;;;;;11.61;66.75;93009.84;5032838;28;20040;-50
2021/05/08 00:51:23;;;;;;;2.90;0.93;;;;;;;11.70;66.14;92987.84;5049666;28;20032;-47
2021/05/08 00:53:48;;;;;;;0.80;0.65;;;;;;;11.99;66.27;93004.72;5049404;28;20139;-47
2021/05/08 00:56:14;;;;;;;2.83;1.27;;;;;;;12.05;66.15;93016.25;5065054;28;20036;-49
2021/05/08 00:58:40;;;;;;;0.82;0.57;;;;;;;12.11;66.42;93030.59;5069647;28;20035;-48
2021/05/08 01:01:06;;;;;;;5.53;1.30;;;;;;;12.08;66.78;93028.97;5069638;28;20056;-50
2021/05/08 01:03:31;;;;;;;1.50;0.65;;;;;;;12.14;66.68;93026.69;5069734;28;20397;-48
2021/05/08 01:05:57;;;;;;;8.02;1.00;;;;;;;12.03;67.07;93038.97;5069196;28;20032;-48
2021/05/08 01:08:23;;;;;;;0.82;0.80;;;;;;;12.01;66.77;93030.50;5069509;28;20071;-51
2021/05/08 01:10:49;;;;;;;0.82;0.80;;;;;;;12.06;67.10;93045.41;5051644;28;20158;-49
2021/05/08 01:13:15;;;;;;;0.77;0.77;;;;;;;12.05;67.05;93047.44;5051686;28;20416;-52
2021/05/08 01:15:41;;;;;;;2.97;1.17;;;;;;;11.89;67.49;93051.63;5051390;28;20115;-53
2021/05/08 01:18:06;;;;;;;0.90;0.90;;;;;;;12.12;66.59;93049.41;5069340;28;20507;-48
2021/05/08 01:20:32;;;;;;;2.30;0.68;;;;;;;12.10;66.61;93057.53;5051271;28;20024;-50
2021/05/08 01:22:57;;;;;;;1.35;1.25;;;;;;;12.09;67.16;93038.72;5069074;28;20031;-50
2021/05/08 01:25:24;;;;;;;0.52;0.50;;;;;;;12.30;66.06;93061.19;5068807;28;20029;-48
2021/05/08 01:27:55;;;;;;;1.63;1.52;;;;;;;12.43;65.16;93062.94;5069542;28;20115;-47
2021/05/08 01:30:24;;;;;;;1.15;0.85;;;;;;;12.34;65.51;93069.84;5069210;28;20512;-48
2021/05/08 01:32:51;;;;;;;1.05;0.95;;;;;;;12.44;65.25;93081.75;5069362;28;20393;-48
2021/05/08 01:35:16;;;;;;;1.42;1.02;;;;;;;12.21;66.75;93078.47;5068374;28;20036;-48
2021/05/08 01:37:43;;;;;;;1.33;0.88;;;;;;;12.22;66.62;93087.50;5069167;28;20035;-47
2021/05/08 01:40:12;;;;;;;2.40;0.90;;;;;;;12.08;66.55;93096.09;5069458;28;20017;-46
2021/05/08 01:42:41;;;;;;;0.88;0.70;;;;;;;12.14;66.63;93093.09;5069170;28;20028;-46
2021/05/08 01:45:16;;;;;;;1.55;1.40;;;;;;;12.27;65.68;93097.59;5069197;28;20036;-46
2021/05/08 01:47:42;;;;;;;0.73;0.50;;;;;;;12.40;64.41;93109.09;5051322;28;20077;-47
2021/05/08 01:50:10;;;;;;;0.95;0.80;;;;;;;12.47;64.46;93119.38;5068566;28;20020;-46
2021/05/08 01:52:36;;;;;;;2.65;2.45;;;;;;;12.54;64.20;93121.31;5069087;28;20489;-46
2021/05/08 01:55:08;;;;;;;0.85;0.77;;;;;;;12.53;63.53;93128.16;5069084;28;20041;-46
2021/05/08 01:57:46;;;;;;;3.35;1.40;;;;;;;12.56;63.12;93135.31;5069463;28;20123;-48
2021/05/08 02:00:18;;;;;;;1.25;0.82;;;;;;;12.54;62.69;93128.91;5069041;28;20116;-49
2021/05/08 02:02:44;;;;;;;2.47;1.10;;;;;;;12.55;62.79;93142.19;5072962;28;20029;-47
2021/05/08 02:05:10;;;;;;;2.88;0.70;;;;;;;12.52;62.62;93131.47;5073065;28;20033;-47
2021/05/08 02:07:36;;;;;;;4.45;1.17;;;;;;;12.62;62.32;93144.16;5072606;28;20081;-48
2021/05/08 02:10:03;;;;;;;0.82;0.73;;;;;;;12.66;61.57;93154.81;5072143;28;20028;-49
2021/05/08 02:12:33;;;;;;;1.25;1.13;;;;;;;12.51;62.29;93152.94;5071662;28;20032;-48
2021/05/08 02:14:58;;;;;;;1.38;0.98;;;;;;;12.48;62.49;93151.28;5072459;28;20025;-46
2021/05/08 02:17:24;;;;;;;11.25;1.98;;;;;;;12.47;62.71;93149.09;5072681;28;20113;-48
2021/05/08 02:19:49;;;;;;;1.02;1.02;;;;;;;12.19;62.14;93159.28;5072681;28;20028;-47
2021/05/08 02:22:16;;;;;;;0.80;0.70;;;;;;;12.07;62.75;93169.34;5072415;28;20032;-50
2021/05/08 02:24:42;;;;;;;1.42;1.33;;;;;;;11.94;63.04;93169.63;5072621;28;20485;-47
2021/05/08 02:27:08;;;;;;;2.67;1.17;;;;;;;12.06;63.27;93175.47;5071628;28;20048;-48
2021/05/08 02:29:33;;;;;;;0.75;0.65;;;;;;;12.06;63.46;93181.00;5072554;28;20036;-48
2021/05/08 02:31:58;;;;;;;0.95;0.88;;;;;;;11.93;63.68;93184.75;5072548;28;20409;-47
2021/05/08 02:34:24;;;;;;;3.55;1.15;;;;;;;11.91;64.01;93192.88;5072342;28;20029;-46
2021/05/08 02:36:49;;;;;;;1.25;1.20;;;;;;;11.90;64.41;93207.28;5072253;28;20386;-47
2021/05/08 02:39:15;;;;;;;3.75;1.27;;;;;;;11.90;65.15;93212.81;5072261;28;20456;-52
2021/05/08 02:41:40;;;;;;;1.35;1.25;;;;;;;11.81;65.68;93213.44;5072286;28;20025;-48
2021/05/08 02:44:06;;;;;;;2.92;1.80;;;;;;;11.73;65.78;93221.78;5054030;28;20036;-48
2021/05/08 02:46:31;;;;;;;1.23;0.90;;;;;;;11.88;65.38;93220.94;5072282;28;20098;-49
2021/05/08 02:48:56;;;;;;;1.48;1.27;;;;;;;11.91;65.48;93220.56;5071836;28;20028;-50
2021/05/08 02:51:22;;;;;;;1.45;1.05;;;;;;;11.74;66.79;93228.03;5071846;28;20036;-50
2021/05/08 02:53:47;;;;;;;1.52;1.20;;;;;;;11.73;67.53;93235.63;5071576;28;20056;-53
2021/05/08 02:56:13;;;;;;;1.90;1.65;;;;;;;11.79;67.27;93238.16;5071763;28;20032;-48
2021/05/08 02:58:38;;;;;;;1.60;1.50;;;;;;;11.85;66.88;93249.72;5071955;28;20012;-47
2021/05/08 03:01:03;;;;;;;2.45;2.25;;;;;;;11.79;66.73;93249.22;5071929;28;20021;-49
2021/05/08 03:03:29;;;;;;;2.45;1.85;;;;;;;11.82;66.76;93251.63;5071839;28;20021;-47
2021/05/08 03:05:54;;;;;;;3.20;2.15;;;;;;;11.67;67.38;93256.47;5072130;28;20024;-47
2021/05/08 03:08:20;;;;;;;2.20;1.90;;;;;;;11.65;68.03;93257.00;5071545;28;20676;-48
2021/05/08 03:10:46;;;;;;;4.15;2.42;;;;;;;11.73;68.03;93257.00;5071856;28;20028;-49
2021/05/08 03:13:11;;;;;;;3.63;2.70;;;;;;;11.72;68.07;93263.81;5071126;28;20520;-49
2021/05/08 03:15:37;;;;;;;2.70;2.50;;;;;;;11.66;68.17;93261.25;5071293;28;20024;-48
2021/05/08 03:18:03;;;;;;;3.05;2.33;;;;;;;11.69;68.25;93264.94;5071577;28;20029;-46
2021/05/08 03:20:28;;;;;;;4.32;2.97;;;;;;;11.73;69.17;93266.03;5071497;28;20121;-50
2021/05/08 03:22:53;;;;;;;4.88;3.72;;;;;;;11.63;69.54;93273.41;5070855;28;20442;-49
2021/05/08 03:25:19;;;;;;;5.38;4.07;;;;;;;11.56;70.25;93282.50;5070660;28;20075;-50
2021/05/08 03:27:44;;;;;;;7.65;4.70;;;;;;;11.49;70.59;93296.34;5070762;28;20070;-48
2021/05/08 03:30:10;;;;;;;6.50;4.30;;;;;;;11.39;71.58;93288.63;5070636;28;20036;-48
2021/05/08 03:32:35;;;;;;;5.28;3.88;;;;;;;11.40;71.47;93300.41;5070844;28;20024;-48
2021/05/08 03:35:01;;;;;;;6.03;3.45;;;;;;;11.26;72.14;93313.72;5070662;28;20106;-47
2021/05/08 03:37:26;;;;;;;4.35;3.53;;;;;;;11.37;71.11;93326.41;5070347;28;20111;-47
2021/05/08 03:39:52;;;;;;;5.88;4.25;;;;;;;11.26;72.21;93327.53;5070795;28;20043;-50
2021/05/08 03:42:17;;;;;;;4.50;3.13;;;;;;;11.21;72.23;93333.28;5070349;28;20032;-47
2021/05/08 03:44:43;;;;;;;4.50;3.42;;;;;;;11.32;71.55;93330.84;5070728;28;20024;-47
2021/05/08 03:47:09;;;;;;;4.63;3.42;;;;;;;11.45;70.79;93343.72;5070584;28;20028;-47
2021/05/08 03:49:36;;;;;;;5.15;3.25;;;;;;;11.36;71.07;93341.53;5071013;28;20035;-50
2021/05/08 03:52:03;;;;;;;3.13;2.60;;;;;;;11.47;70.65;93345.91;5070899;28;20040;-48
2021/05/08 03:54:28;;;;;;;2.83;2.55;;;;;;;11.54;69.86;93353.47;5070436;28;20052;-48
2021/05/08 03:56:55;;;;;;;6.60;3.33;;;;;;;11.38;70.65;93353.50;5070479;28;20042;-49
2021/05/08 03:59:20;;;;;;;3.20;2.45;;;;;;;11.44;70.01;93353.28;5070863;28;20155;-47
2021/05/08 04:01:46;;;;;;;3.92;2.60;;;;;;;11.35;69.74;93362.91;5070736;28;20479;-48
2021/05/08 04:04:11;;;;;;;3.05;2.67;;;;;;;11.39;69.79;93368.06;5070422;28;20086;-49
2021/05/08 04:06:36;;;;;;;3.63;2.13;;;;;;;11.32;69.59;93377.84;5069600;28;20024;-50
2021/05/08 04:09:02;;;;;;;3.83;3.15;;;;;;;11.36;69.34;93377.47;5070182;28;20025;-50
2021/05/08 04:11:28;;;;;;;3.10;2.13;;;;;;;11.37;68.77;93379.66;5070390;28;20086;-50
2021/05/08 04:13:53;;;;;;;3.50;2.08;;;;;;;11.43;68.80;93379.47;5070498;28;20020;-49
2021/05/08 04:16:18;;;;;;;1.95;1.67;;;;;;;11.44;68.46;93389.97;5069686;28;20036;-48
2021/05/08 04:18:45;;;;;;;2.25;2.05;;;;;;;11.41;67.95;93396.59;5070394;28;20031;-47
2021/05/08 04:21:10;;;;;;;2.95;2.25;;;;;;;11.25;68.24;93399.94;5070339;28;20139;-49
2021/05/08 04:23:36;;;;;;;3.40;2.05;;;;;;;11.35;68.55;93409.16;5069599;28;20029;-49
2021/05/08 04:26:01;;;;;;;2.28;2.05;;;;;;;11.18;68.27;93406.97;5070279;28;20417;-49
2021/05/08 04:28:26;;;;;;;2.30;2.10;;;;;;;11.13;68.78;93407.88;5069882;28;20031;-48
2021/05/08 04:30:52;;;;;;;2.35;2.15;;;;;;;11.10;68.42;93411.00;5069932;28;20031;-50
2021/05/08 04:33:18;;;;;;;7.07;2.72;;;;;;;11.13;68.88;93420.97;5069832;28;20086;-51
2021/05/08 04:35:44;;;;;;;3.13;1.98;;;;;;;11.11;68.63;93424.28;5070152;28;20109;-49
2021/05/08 04:38:09;;;;;;;2.28;2.08;;;;;;;11.20;68.04;93426.47;5069950;28;20477;-49
2021/05/08 04:40:35;;;;;;;2.00;1.67;;;;;;;11.28;67.63;93440.31;5070072;28;20028;-48
2021/05/08 04:43:00;;;;;;;1.77;1.20;;;;;;;11.16;67.91;93436.44;5070011;28;20421;-48
2021/05/08 04:45:26;;;;;;;1.45;1.35;;;;;;;11.25;67.70;93450.44;5069845;28;20035;-52
2021/05/08 04:47:55;;;;;;;2.97;1.40;;;;;;;11.26;67.89;93451.19;5069983;28;20696;-49
2021/05/08 04:50:22;;;;;;;3.20;1.95;;;;;;;11.21;67.90;93457.63;5069591;28;20032;-50
2021/05/08 04:52:47;;;;;;;2.47;2.28;;;;;;;11.14;68.20;93467.38;5069569;28;20024;-46
2021/05/08 04:55:13;;;;;;;1.98;1.83;;;;;;;11.06;68.78;93471.44;5068865;28;20059;-51
2021/05/08 04:57:38;;;;;;;2.28;1.90;;;;;;;11.02;68.06;93474.53;5069545;28;20032;-48
2021/05/08 05:00:04;;;;;;;1.75;1.60;;;;;;;11.01;68.39;93467.56;5069959;28;20024;-47
2021/05/08 05:02:30;;;;;;;3.03;1.67;;;;;;;11.17;68.25;93491.16;5069513;28;20028;-47
2021/05/08 05:04:55;;;;;;;1.58;1.48;;;;;;;11.19;68.55;93491.34;5069833;28;20035;-49
2021/05/08 05:07:21;;;;;;;1.95;1.75;;;;;;;11.27;67.97;93502.41;5069762;28;20090;-49
2021/05/08 05:09:46;;;;;;;1.95;1.60;;;;;;;11.24;67.72;93504.22;5069938;28;20466;-50
2021/05/08 05:12:11;;;;;;;3.17;2.05;;;;;;;11.27;67.57;93511.44;5069562;28;20414;-49
2021/05/08 05:14:37;;;;;;;1.98;1.80;;;;;;;11.38;67.34;93508.31;5069472;28;20021;-49
2021/05/08 05:17:02;;;;;;;1.40;1.30;;;;;;;11.38;67.03;93504.78;5069421;28;20028;-49
2021/05/08 05:19:28;;;;;;;1.95;1.55;;;;;;;11.38;67.33;93513.84;5069293;28;20017;-49
2021/05/08 05:21:53;;;;;;;1.90;1.58;;;;;;;11.34;67.22;93501.66;5069637;28;20024;-48
2021/05/08 05:24:19;;;;;;;5.40;3.28;;;;;;;11.31;67.57;93497.97;5069572;28;20032;-49
2021/05/08 05:26:44;;;;;;;1.73;1.58;;;;;;;11.26;68.25;93498.16;5069197;28;20020;-47
2021/05/08 05:29:10;;;;;;;1.70;1.60;;;;;;;11.39;67.68;93500.75;5069483;28;20020;-46
2021/05/08 05:31:37;;;;;;;2.75;2.08;;;;;;;11.46;67.73;93497.22;5069219;28;20040;-50
2021/05/08 05:34:03;;;;;;;4.20;2.65;;;;;;;11.48;66.97;93499.47;5069111;28;20028;-50
2021/05/08 05:36:28;;;;;;;2.85;2.38;;;;;;;11.48;66.73;93500.19;5072964;28;20031;-46
2021/05/08 05:38:54;;;;;;;2.65;1.92;;;;;;;11.47;67.11;93501.47;5073499;28;20412;-45
2021/05/08 05:41:19;;;;;;;1.42;1.33;;;;;;;11.55;66.70;93507.75;5073403;28;20664;-46
2021/05/08 05:43:45;;;;;;;4.72;1.90;;;;;;;11.63;66.74;93516.06;5073070;28;20028;-49
2021/05/08 05:46:10;;;;;;;2.40;1.70;;;;;;;11.61;66.35;93515.88;5072907;28;20028;-48
2021/05/08 05:48:36;;;;;;;2.00;1.75;;;;;;;11.56;66.35;93509.22;5073047;28;20025;-49
2021/05/08 05:51:01;;;;;;;3.10;2.25;;;;;;;11.76;65.38;93519.38;5072957;28;20098;-47
2021/05/08 05:53:26;;;;;;;2.55;2.33;;;;;;;11.71;65.71;93514.78;5074483;28;20032;-46
2021/05/08 05:55:52;;;;;;;3.45;2.20;;;;;;;11.78;65.58;93514.00;5093182;28;20060;-46
2021/05/08 05:58:17;;;;;;;3.00;1.98;;;;;;;11.88;64.14;93520.47;5075768;28;20037;-48
2021/05/08 06:00:43;;;;;;;2.17;1.38;;;;;;;11.80;64.42;93519.00;5072273;28;20016;-47
2021/05/08 06:03:08;;;;;;;2.25;1.65;;;;;;;11.82;64.35;93524.72;5072229;28;20024;-47
2021/05/08 06:05:34;;;;;;;1.48;1.20;;;;;;;11.62;64.14;93517.31;5072582;28;20028;-48
2021/05/08 06:07:59;;;;;;;2.38;1.25;;;;;;;11.71;64.07;93534.13;5072111;28;20021;-52
2021/05/08 06:10:25;;;;;;;2.28;1.58;;;;;;;11.55;64.42;93513.28;5072068;28;20020;-49
2021/05/08 06:12:50;;;;;;;10.80;5.78;;;;;;;11.65;64.39;93539.06;5072393;28;20038;-48
2021/05/08 06:15:16;;;;;;;1.60;1.50;;;;;;;11.73;64.51;93530.81;5081994;28;20034;-53
2021/05/08 06:17:41;;;;;;;2.35;1.30;;;;;;;11.89;63.99;93530.22;5092911;28;20054;-54
2021/05/08 06:20:07;;;;;;;4.28;1.50;;;;;;;11.90;63.90;93530.97;5092975;28;20028;-50
2021/05/08 06:22:33;;;;;;;1.33;1.23;;;;;;;12.01;63.81;93545.16;5092838;28;20024;-54
2021/05/08 06:24:59;;;;;;;2.35;1.60;;;;;;;12.01;63.05;93552.72;5092906;28;20028;-55
2021/05/08 06:27:24;;;;;;;1.45;1.17;;;;;;;11.79;62.85;93545.94;5092911;28;20027;-56
2021/05/08 06:29:50;;;;;;;2.47;1.90;;;;;;;11.81;63.51;93548.13;5092436;28;20039;-53
2021/05/08 06:32:16;;;;;;;1.02;0.95;;;;;;;11.95;63.02;93552.19;5092449;28;20090;-52
2021/05/08 06:34:41;;;;;;;1.60;1.50;;;;;;;11.92;62.51;93559.56;5092682;28;20032;-55
2021/05/08 06:37:07;;;;;;;1.73;1.60;;;;;;;11.87;62.83;93556.97;5092024;28;20031;-49
2021/05/08 06:39:32;;;;;;;8.20;5.45;;;;;;;11.72;63.23;93568.78;5092237;28;20043;-50
2021/05/08 06:41:58;;;;;;;6.82;2.75;;;;;;;11.59;63.79;93557.88;5092649;28;20020;-49
2021/05/08 06:44:25;;;;;;;2.15;1.30;;;;;;;11.62;63.80;93562.31;5092483;28;20566;-49
2021/05/08 06:46:53;;;;;;;2.00;1.65;;;;;;;11.53;63.70;93554.56;5091400;28;20545;-48
2021/05/08 06:49:19;;;;;;;1.73;1.63;;;;;;;11.30;64.31;93553.81;5053452;28;20498;-48
2021/05/08 06:51:44;;;;;;;2.25;2.05;;;;;;;11.34;64.31;93568.75;5049862;28;20029;-50
2021/05/08 06:54:10;;;;;;;1.17;1.08;;;;;;;11.41;64.09;93568.00;5049356;28;20052;-52
2021/05/08 06:56:35;;;;;;;1.92;1.83;;;;;;;11.38;64.28;93573.91;5049586;28;20036;-49
2021/05/08 06:59:01;;;;;;;1.83;1.48;;;;;;;11.47;64.11;93580.91;5049566;28;20029;-49
2021/05/08 07:01:26;;;;;;;1.48;1.38;;;;;;;11.40;64.22;93577.59;5049894;28;20024;-49
2021/05/08 07:03:52;;;;;;;2.65;2.45;;;;;;;11.35;64.36;93583.28;5058069;28;20484;-51
2021/05/08 07:06:17;;;;;;;1.63;1.23;;;;;;;11.27;64.73;93574.25;5069436;28;20420;-50
2021/05/08 07:08:43;;;;;;;1.55;1.45;;;;;;;11.42;64.07;93571.50;5069202;28;20039;-49
2021/05/08 07:11:08;;;;;;;1.92;0.85;;;;;;;11.41;64.17;93583.88;5069076;28;20525;-49
2021/05/08 07:13:34;;;;;;;1.83;1.52;;;;;;;11.51;64.16;93586.81;5069232;28;20035;-51
2021/05/08 07:15:59;;;;;;;2.60;1.73;;;;;;;11.54;65.07;93575.41;5084952;28;20028;-53
2021/05/08 07:18:25;;;;;;;4.35;1.83;;;;;;;11.61;64.55;93574.66;5089372;28;20110;-47
2021/05/08 07:20:51;;;;;;;1.63;1.52;;;;;;;11.69;64.79;93574.69;5080956;28;20042;-50
2021/05/08 07:23:17;;;;;;;1.17;1.17;;;;;;;11.73;64.28;93584.09;5088959;28;20032;-49
2021/05/08 07:25:42;;;;;;;2.85;2.13;;;;;;;11.85;63.64;93590.00;5089311;28;20066;-49
2021/05/08 07:28:08;;;;;;;1.38;1.27;;;;;;;11.77;63.79;93592.78;5089434;28;20028;-51
2021/05/08 07:30:35;;;;;;;2.03;1.73;;;;;;;11.98;63.54;93595.34;5089533;28;20423;-51
2021/05/08 07:33:01;;;;;;;3.78;2.45;;;;;;;11.97;63.26;93593.88;5088746;28;20551;-49
2021/05/08 07:35:26;;;;;;;3.17;1.85;;;;;;;12.07;63.12;93598.28;5088862;28;20085;-48
2021/05/08 07:37:52;;;;;;;3.60;2.78;;;;;;;12.10;62.35;93597.19;5088728;28;20848;-48
2021/05/08 07:40:17;;;;;;;6.60;5.57;;;;;;;12.21;62.29;93598.09;5088744;28;20027;-50
2021/05/08 07:42:43;;;;;;;3.65;2.72;;;;;;;12.29;62.71;93602.31;5088859;28;20032;-49
2021/05/08 07:45:10;;;;;;;2.22;2.03;;;;;;;12.34;62.43;93590.31;5088035;28;20511;-49
2021/05/08 07:47:36;;;;;;;1.85;1.75;;;;;;;12.43;62.69;93589.72;5072459;28;20600;-48
2021/05/08 07:50:02;;;;;;;4.10;2.05;;;;;;;12.52;62.35;93597.47;5067603;28;20024;-46
2021/05/08 07:52:27;;;;;;;1.73;1.60;;;;;;;12.62;61.87;93597.63;5067983;28;20033;-46
2021/05/08 07:54:52;;;;;;;2.15;1.95;;;;;;;12.75;61.84;93605.72;5067815;28;20080;-47
2021/05/08 07:57:18;;;;;;;2.15;1.95;;;;;;;12.88;61.31;93599.94;5067898;28;20552;-47
2021/05/08 07:59:43;;;;;;;3.47;1.83;;;;;;;13.07;60.33;93605.81;5066604;28;20036;-49
2021/05/08 08:02:10;;;;;;;4.82;2.58;;;;;;;13.52;59.58;93588.91;5067739;28;20044;-47
2021/05/08 08:04:36;;;;;;;3.20;2.15;;;;;;;13.95;58.25;93598.03;5068219;28;20029;-49
2021/05/08 08:07:01;;;;;;;1.83;1.35;;;;;;;14.50;55.92;93595.72;5068815;28;20027;-50
2021/05/08 08:09:26;;;;;;;2.80;1.90;;;;;;;15.10;53.76;93586.69;5068431;28;20110;-59
2021/05/08 08:11:52;;;;;;;1.70;1.60;;;;;;;15.26;52.93;93592.06;5068296;28;20808;-58
2021/05/08 08:14:18;;;;;;;1.48;1.23;;;;;;;15.57;52.32;93599.44;5067909;28;20032;-55
2021/05/08 08:16:43;;;;;;;1.40;1.23;;;;;;;15.83;50.74;93601.47;5068289;28;20032;-59
2021/05/08 08:19:08;;;;;;;1.83;1.67;;;;;;;15.57;49.96;93604.31;5068262;28;20465;-58
2021/05/08 08:21:34;;;;;;;1.70;1.60;;;;;;;15.61;51.12;93596.25;5068088;28;20496;-57
2021/05/08 08:24:00;;;;;;;2.47;1.42;;;;;;;15.75;49.86;93586.22;5067849;28;20507;-57
2021/05/08 08:26:25;;;;;;;3.65;1.85;;;;;;;15.74;50.25;93588.25;5067714;28;20508;-59
2021/05/08 08:28:51;;;;;;;2.70;1.70;;;;;;;15.64;50.31;93595.84;5067611;28;20029;-58
2021/05/08 08:31:17;;;;;;;5.10;1.80;;;;;;;15.66;50.77;93592.47;5067797;28;20530;-50
2021/05/08 08:33:43;;;;;;;1.98;1.40;;;;;;;15.75;51.01;93603.66;5067647;28;20036;-53
2021/05/08 08:36:08;;;;;;;1.63;1.10;;;;;;;15.45;50.54;93598.50;5067691;28;20024;-60
2021/05/08 08:38:34;;;;;;;2.63;1.52;;;;;;;15.26;50.38;93595.59;5067517;28;20124;-61
2021/05/08 08:40:59;;;;;;;1.85;1.02;;;;;;;15.14;51.11;93592.59;5067382;28;20024;-52
2021/05/08 08:43:25;;;;;;;1.75;1.33;;;;;;;15.23;51.18;93598.78;5067822;28;20032;-53
2021/05/08 08:45:50;;;;;;;3.53;2.35;;;;;;;15.14;50.86;93589.81;5049120;28;20567;-55
2021/05/08 08:48:17;;;;;;;1.90;1.58;;;;;;;14.97;51.66;93583.53;5067887;28;20028;-56
2021/05/08 08:50:42;;;;;;;1.45;1.30;;;;;;;14.68;52.39;93590.91;5067484;28;20098;-55
2021/05/08 08:53:13;;;;;;;6.88;1.88;;;;;;;14.81;52.58;93599.63;5049293;28;20036;-53
2021/05/08 08:55:42;;;;;;;2.13;1.60;;;;;;;14.69;52.52;93586.81;5065638;28;20098;-55
2021/05/08 08:58:07;;;;;;;1.98;1.77;;;;;;;14.64;53.17;93571.84;5067282;28;20419;-53
2021/05/08 09:00:33;;;;;;;23.75;1.95;;;;;;;14.75;53.86;93574.13;5047121;28;20052;-51
2021/05/08 09:03:01;;;;;;;2.85;1.65;;;;;;;14.95;52.52;93588.94;5047251;28;20709;-54
2021/05/08 09:05:26;;;;;;;1.23;1.05;;;;;;;15.06;51.88;93580.09;5047247;28;20796;-54
2021/05/08 09:07:52;;;;;;;1.60;1.50;;;;;;;15.20;51.91;93589.56;5047337;28;20028;-50
2021/05/08 09:10:26;;;;;;;2.13;1.45;;;;;;;15.17;51.58;93590.69;5047078;28;20052;-57
2021/05/08 09:12:53;;;;;;;5.68;1.65;;;;;;;15.27;51.36;93593.56;5047094;28;20025;-50
2021/05/08 09:15:29;;;;;;;1.60;1.50;;;;;;;15.27;51.59;93593.56;5066982;28;20021;-53
2021/05/08 09:17:54;;;;;;;2.83;1.52;;;;;;;15.29;51.55;93590.94;5087331;28;20024;-50
2021/05/08 09:20:20;;;;;;;2.17;1.73;;;;;;;15.15;51.54;93587.75;5069235;28;20472;-51
2021/05/08 09:22:46;;;;;;;2.50;2.05;;;;;;;14.75;52.46;93592.88;5087765;28;20099;-54
2021/05/08 09:25:19;;;;;;;1.70;1.52;;;;;;;14.92;52.60;93599.16;5087073;28;20035;-54
2021/05/08 09:27:57;;;;;;;1.20;1.10;;;;;;;14.88;52.21;93587.69;5087064;28;20020;-52
2021/05/08 09:30:26;;;;;;;3.05;1.73;;;;;;;14.90;52.00;93592.72;5086803;28;20071;-54
2021/05/08 09:32:54;;;;;;;;;;;;;;;15.00;52.06;93577.56;5086513;28;20032;-55
2021/05/08 09:35:21;;;;;;;1.65;1.55;;;;;;;15.39;50.99;93589.66;5086210;28;20001;-54
2021/05/08 09:37:49;;;;;;;1.40;1.27;;;;;;;15.56;51.72;93592.44;5085945;28;20055;-54
2021/05/08 09:40:14;;;;;;;1.20;1.10;;;;;;;15.58;52.27;93589.06;5086170;28;20746;-53
2021/05/08 09:42:45;;;;;;;0.93;0.75;;;;;;;15.76;49.88;93587.69;5085467;28;20046;-54
2021/05/08 09:45:12;;;;;;;3.33;1.75;;;;;;;15.79;48.53;93581.69;5084528;28;20024;-54
2021/05/08 09:47:38;;;;;;;6.30;1.95;;;;;;;16.12;47.72;93573.75;5086681;28;20411;-53
2021/05/08 09:50:03;;;;;;;2.78;1.20;;;;;;;17.06;47.52;93565.38;5087176;28;20024;-52
2021/05/08 09:52:43;;;;;;;0.40;0.40;;;;;;;17.98;45.15;93560.00;5079894;28;20024;-56
2021/05/08 09:55:10;;;;;;;0.65;0.60;;;;;;;19.16;42.25;93572.78;5066405;28;20654;-53
2021/05/08 09:57:35;;;;;;;0.45;0.40;;;;;;;20.33;38.46;93554.91;5066036;28;20032;-52
2021/05/08 10:00:01;;;;;;;0.95;0.85;;;;;;;20.65;37.35;93568.03;5066786;28;20417;-51
2021/05/08 10:02:26;;;;;;;0.70;0.45;;;;;;;21.57;35.98;93566.97;5066839;28;20029;-52
2021/05/08 10:04:53;;;;;;;1.55;1.38;;;;;;;21.70;34.41;93571.91;5066680;28;20029;-51
2021/05/08 10:07:24;;;;;;;0.43;0.43;;;;;;;22.36;34.17;93569.19;5066742;28;20408;-52
2021/05/08 10:09:52;;;;;;;1.17;0.40;;;;;;;21.98;33.54;93581.19;5065938;28;20028;-52
2021/05/08 10:12:22;;;;;;;0.90;0.60;;;;;;;21.69;32.89;93576.09;5066698;28;20491;-49
2021/05/08 10:14:50;;;;;;;1.42;0.60;;;;;;;21.40;33.52;93572.31;5063199;28;20028;-49
2021/05/08 10:17:18;;;;;;;1.55;1.27;;;;;;;20.98;34.34;93585.41;5046030;28;20098;-52
2021/05/08 10:19:57;;;;;;;1.35;0.85;;;;;;;20.73;34.58;93581.78;5045477;28;20029;-53
2021/05/08 10:22:23;;;;;;;1.88;1.08;;;;;;;20.62;33.63;93586.06;5047294;28;20464;-51
2021/05/08 10:24:50;;;;;;;1.85;1.33;;;;;;;19.87;36.15;93591.28;5055193;28;20107;-52
2021/05/08 10:27:16;;;;;;;2.58;1.40;;;;;;;19.50;37.41;93599.47;5069856;28;20094;-56
2021/05/08 10:29:43;;;;;;;4.22;2.15;;;;;;;19.30;34.59;93590.47;5071495;28;20051;-57
2021/05/08 10:32:11;;;;;;;14.68;2.00;;;;;;;19.45;35.34;93589.34;5053950;28;20032;-55
2021/05/08 10:34:39;;;;;;;3.45;2.28;;;;;;;19.20;36.22;93594.72;5072340;28;20035;-56
2021/05/08 10:37:11;;;;;;;1.27;0.88;;;;;;;18.85;35.37;93591.75;5061469;28;20035;-57
2021/05/08 10:39:52;;;;;;;2.90;1.05;;;;;;;18.94;35.57;93604.94;5070347;28;20472;-56
2021/05/08 10:42:34;;;;;;;2.67;1.70;;;;;;;19.58;33.93;93602.78;5069777;28;20099;-59
2021/05/08 10:45:07;;;;;;;0.43;0.40;;;;;;;21.11;32.56;93590.38;5070543;28;20114;-57
2021/05/08 10:48:13;;;;;;;1.17;1.02;;;;;;;21.36;29.73;93598.09;5070739;28;20025;-58
2021/05/08 10:50:46;;;;;;;1.23;0.45;;;;;;;21.55;30.00;93583.72;5050497;28;20044;-57
2021/05/08 10:53:16;;;;;;;0.57;0.43;;;;;;;20.78;29.92;93584.22;5050002;28;20028;-57
2021/05/08 10:55:48;;;;;;;1.50;0.60;;;;;;;20.48;31.81;93579.63;5032137;28;20049;-59
2021/05/08 10:58:13;;;;;;;0.45;0.45;;;;;;;20.24;30.84;93578.19;5031732;28;20033;-58
2021/05/08 11:01:01;;;;;;;1.00;0.90;;;;;;;20.06;32.58;93577.03;5032130;28;20037;-56
2021/05/08 11:03:53;;;;;;;0.63;0.63;;;;;;;19.79;32.67;93585.19;5014458;28;20465;-58
2021/05/08 11:06:18;;;;;;;0.60;0.60;;;;;;;19.99;31.67;93572.41;5031608;28;20127;-57
2021/05/08 11:08:48;;;;;;;0.50;0.50;;;;;;;19.95;33.36;93580.56;4997731;28;20024;-57
2021/05/08 11:11:20;;;;;;;0.80;0.50;;;;;;;19.76;32.33;93591.97;5031850;28;20083;-56
2021/05/08 11:13:48;;;;;;;0.80;0.70;;;;;;;19.03;33.00;93590.13;5046378;28;20103;-57
2021/05/08 11:16:21;;;;;;;0.70;0.70;;;;;;;19.04;33.98;93597.19;5050509;28;20067;-57
2021/05/08 11:18:51;;;;;;;0.68;0.60;;;;;;;18.84;32.97;93607.78;5051738;28;20091;-56
2021/05/08 11:21:20;;;;;;;1.88;0.65;;;;;;;18.67;33.14;93598.91;5051479;28;20064;-56
2021/05/08 11:24:02;;;;;;;2.20;0.85;;;;;;;19.16;32.91;93600.78;5051553;28;20048;-55
2021/05/08 11:26:30;;;;;;;1.52;0.80;;;;;;;19.87;32.69;93605.28;5051661;28;20033;-55
2021/05/08 11:29:07;;;;;;;0.57;0.55;;;;;;;19.87;33.20;93594.06;5051557;28;20024;-55
2021/05/08 11:31:39;;;;;;;3.40;1.67;;;;;;;20.01;33.08;93603.38;5051248;28;20071;-55